Time;durP1;ratioP1;P1;durP2;ratioP2;P2;SDS_P1;SDS_P2;PMS_P1;PMS_P2;Temp;Humidity;BMP_temperature;BMP_pressure;BME280_temperature;BME280_humidity;BME280_pressure;Samples;Min_cycle;Max_cycle;Signal;HPM_P1;HPM_P2
2023/05/09 00:00:27;;;;;;;15.32;13.80;;;;;;;;;;4954516;28;20063;-72
2023/05/09 00:02:53;;;;;;;15.10;13.45;;;;;;;;;;4952766;28;20132;-73
2023/05/09 00:05:19;;;;;;;15.40;12.75;;;;;;;;;;4951452;28;20027;-72
2023/05/09 00:07:45;;;;;;;16.05;13.93;;;;;;;;;;4946987;28;20094;-72
2023/05/09 00:10:10;;;;;;;17.35;13.70;;;;;;;;;;4940088;28;20027;-71
2023/05/09 00:12:36;;;;;;;14.25;12.75;;;;;;;;;;4949736;28;20022;-71
2023/05/09 00:15:02;;;;;;;12.25;10.55;;;;;;;;;;4952267;28;20031;-71
2023/05/09 00:17:27;;;;;;;12.00;10.75;;;;;;;;;;4953172;28;20031;-74
2023/05/09 00:19:54;;;;;;;7.72;6.65;;;;;;;;;;4951855;28;20316;-72
2023/05/09 00:22:22;;;;;;;4.65;4.00;;;;;;;;;;4947967;28;20336;-71
2023/05/09 00:24:48;;;;;;;3.38;3.08;;;;;;;;;;4957623;28;20046;-73
2023/05/09 00:27:13;;;;;;;2.92;2.60;;;;;;;;;;4957348;28;20030;-72
2023/05/09 00:29:39;;;;;;;2.22;2.00;;;;;;;;;;4957915;28;20439;-71
2023/05/09 00:32:04;;;;;;;2.45;2.10;;;;;;;;;;4956682;28;20022;-71
2023/05/09 00:34:29;;;;;;;1.90;1.80;;;;;;;;;;4961757;28;20026;-71
2023/05/09 00:36:55;;;;;;;3.03;1.70;;;;;;;;;;4958441;28;20031;-71
2023/05/09 00:39:20;;;;;;;1.70;1.60;;;;;;;;;;4956632;28;20023;-74
2023/05/09 00:41:46;;;;;;;1.30;1.20;;;;;;;;;;4954547;28;20047;-73
2023/05/09 00:44:11;;;;;;;1.50;1.30;;;;;;;;;;4953709;28;20031;-72
2023/05/09 00:46:37;;;;;;;2.38;1.60;;;;;;;;;;4957666;28;20110;-72
2023/05/09 00:49:03;;;;;;;1.65;1.55;;;;;;;;;;4956969;28;20452;-72
2023/05/09 00:51:28;;;;;;;1.92;1.70;;;;;;;;;;4957862;28;20117;-71
2023/05/09 00:53:54;;;;;;;1.70;1.60;;;;;;;;;;4955794;28;20070;-72
2023/05/09 00:56:20;;;;;;;3.63;1.80;;;;;;;;;;4957981;28;20422;-72
2023/05/09 00:58:46;;;;;;;2.10;1.90;;;;;;;;;;4956445;28;20027;-71
2023/05/09 01:01:11;;;;;;;4.00;1.90;;;;;;;;;;4956864;28;20071;-71
2023/05/09 01:03:38;;;;;;;1.98;1.75;;;;;;;;;;4955534;28;20371;-74
2023/05/09 01:06:17;;;;;;;2.40;2.10;;;;;;;;;;4957672;28;20443;-72
2023/05/09 01:08:55;;;;;;;2.53;1.88;;;;;;;;;;4957644;28;20088;-72
2023/05/09 01:11:29;;;;;;;3.28;2.05;;;;;;;;;;4953160;28;20114;-72
2023/05/09 01:13:57;;;;;;;2.17;1.90;;;;;;;;;;4949939;28;20026;-71
2023/05/09 01:16:42;;;;;;;2.15;1.92;;;;;;;;;;4954421;28;20125;-72
2023/05/09 01:19:08;;;;;;;1.90;1.80;;;;;;;;;;4956798;28;20069;-72
2023/05/09 01:21:34;;;;;;;2.20;2.10;;;;;;;;;;4955480;28;20074;-71
2023/05/09 01:24:00;;;;;;;2.30;2.10;;;;;;;;;;4956717;28;20028;-71
2023/05/09 01:26:41;;;;;;;1.63;1.52;;;;;;;;;;4947018;28;20053;-72
2023/05/09 01:29:25;;;;;;;1.85;1.70;;;;;;;;;;4951449;28;20038;-71
2023/05/09 01:31:50;;;;;;;1.77;1.65;;;;;;;;;;4954548;28;20023;-72
2023/05/09 01:34:17;;;;;;;1.98;1.40;;;;;;;;;;4958926;28;20030;-73
2023/05/09 01:36:43;;;;;;;1.52;1.42;;;;;;;;;;4954625;28;20366;-73
2023/05/09 01:39:11;;;;;;;2.08;1.48;;;;;;;;;;4951804;28;20022;-72
2023/05/09 01:41:37;;;;;;;2.13;1.92;;;;;;;;;;4947331;28;20050;-73
2023/05/09 01:44:05;;;;;;;1.80;1.50;;;;;;;;;;4953290;28;20037;-74
2023/05/09 01:46:31;;;;;;;1.80;1.70;;;;;;;;;;4949075;28;20030;-72
2023/05/09 01:48:56;;;;;;;2.63;1.88;;;;;;;;;;4959505;28;20462;-72
2023/05/09 01:51:22;;;;;;;1.88;1.60;;;;;;;;;;4954144;28;20031;-72
2023/05/09 01:53:48;;;;;;;2.28;1.80;;;;;;;;;;4962325;28;20359;-73
2023/05/09 01:56:14;;;;;;;1.77;1.67;;;;;;;;;;4956928;28;20378;-75
2023/05/09 01:58:41;;;;;;;2.42;1.80;;;;;;;;;;4955385;28;20321;-74
2023/05/09 02:01:06;;;;;;;2.10;2.00;;;;;;;;;;4949909;28;20039;-73
2023/05/09 02:03:33;;;;;;;1.83;1.67;;;;;;;;;;4945605;28;20109;-74
2023/05/09 02:05:59;;;;;;;4.80;1.58;;;;;;;;;;4952103;28;20367;-73
2023/05/09 02:08:25;;;;;;;1.60;1.50;;;;;;;;;;4954658;28;20122;-72
2023/05/09 02:10:51;;;;;;;1.38;1.27;;;;;;;;;;4955216;28;20798;-72
2023/05/09 02:13:17;;;;;;;1.30;1.20;;;;;;;;;;4952470;28;20133;-73
2023/05/09 02:15:43;;;;;;;1.40;1.00;;;;;;;;;;4953861;28;20114;-72
2023/05/09 02:18:08;;;;;;;1.88;0.90;;;;;;;;;;4957484;28;20482;-72
2023/05/09 02:20:34;;;;;;;1.55;0.80;;;;;;;;;;4955789;28;20033;-72
2023/05/09 02:23:00;;;;;;;2.22;0.80;;;;;;;;;;4955716;28;20031;-72
2023/05/09 02:25:25;;;;;;;0.50;0.50;;;;;;;;;;4970270;28;20102;-72
2023/05/09 02:27:52;;;;;;;0.43;0.43;;;;;;;;;;4955460;28;20027;-74
2023/05/09 02:30:22;;;;;;;0.60;0.60;;;;;;;;;;4953534;28;20031;-73
2023/05/09 02:32:48;;;;;;;0.47;0.43;;;;;;;;;;4955211;28;20023;-72
2023/05/09 02:35:15;;;;;;;0.35;0.35;;;;;;;;;;4956369;28;20105;-74
2023/05/09 02:37:40;;;;;;;0.30;0.30;;;;;;;;;;4954350;28;20026;-73
2023/05/09 02:40:07;;;;;;;0.43;0.20;;;;;;;;;;4945829;28;20473;-71
2023/05/09 02:42:33;;;;;;;0.88;0.22;;;;;;;;;;4954973;28;20157;-73
2023/05/09 02:44:58;;;;;;;0.20;0.20;;;;;;;;;;4955969;28;20432;-73
2023/05/09 02:47:24;;;;;;;0.28;0.20;;;;;;;;;;4953948;28;20027;-70
2023/05/09 02:49:49;;;;;;;1.05;0.13;;;;;;;;;;4952930;28;20037;-72
2023/05/09 02:52:15;;;;;;;0.20;0.20;;;;;;;;;;4957604;28;20112;-72
2023/05/09 02:54:40;;;;;;;0.65;0.20;;;;;;;;;;4952907;28;20026;-72
2023/05/09 02:57:06;;;;;;;0.22;0.20;;;;;;;;;;4967426;28;21787;-73
2023/05/09 02:59:31;;;;;;;0.88;0.40;;;;;;;;;;4955877;28;20101;-72
2023/05/09 03:01:56;;;;;;;0.15;0.10;;;;;;;;;;4954469;28;20023;-72
2023/05/09 03:04:22;;;;;;;0.30;0.15;;;;;;;;;;4950590;28;20378;-72
2023/05/09 03:06:48;;;;;;;0.25;0.20;;;;;;;;;;4946530;28;20381;-72
2023/05/09 03:09:14;;;;;;;1.10;0.10;;;;;;;;;;4940911;28;21122;-71
2023/05/09 03:11:39;;;;;;;0.20;0.10;;;;;;;;;;4948363;28;20026;-70
2023/05/09 03:14:05;;;;;;;0.70;0.20;;;;;;;;;;4954450;28;20106;-72
2023/05/09 03:16:30;;;;;;;0.25;0.10;;;;;;;;;;4948507;28;20042;-72
2023/05/09 03:18:56;;;;;;;0.20;0.20;;;;;;;;;;4955992;28;20030;-73
2023/05/09 03:21:21;;;;;;;0.22;0.20;;;;;;;;;;4954360;28;20109;-72
2023/05/09 03:23:46;;;;;;;0.75;0.10;;;;;;;;;;4954995;28;20033;-73
2023/05/09 03:26:12;;;;;;;1.23;0.20;;;;;;;;;;4952269;28;20050;-72
2023/05/09 03:28:37;;;;;;;0.50;0.20;;;;;;;;;;4942734;28;20090;-71
2023/05/09 03:31:03;;;;;;;0.10;0.10;;;;;;;;;;4952181;28;20068;-71
2023/05/09 03:33:29;;;;;;;0.32;0.20;;;;;;;;;;4954631;28;20398;-72
2023/05/09 03:35:54;;;;;;;0.20;0.10;;;;;;;;;;4954893;28;20042;-72
2023/05/09 03:38:22;;;;;;;0.22;0.20;;;;;;;;;;4954935;28;20022;-71
2023/05/09 03:40:48;;;;;;;0.30;0.28;;;;;;;;;;4953350;28;20477;-73
2023/05/09 03:43:13;;;;;;;0.40;0.10;;;;;;;;;;4956920;28;20035;-72
2023/05/09 03:45:38;;;;;;;0.65;0.10;;;;;;;;;;4939525;28;20554;-74
2023/05/09 03:48:07;;;;;;;1.88;0.20;;;;;;;;;;4937632;28;20414;-72
2023/05/09 03:50:32;;;;;;;0.10;0.10;;;;;;;;;;4936128;28;20382;-73
2023/05/09 03:52:57;;;;;;;0.30;0.17;;;;;;;;;;4945254;28;20031;-74
2023/05/09 03:55:23;;;;;;;0.20;0.20;;;;;;;;;;4959569;28;20054;-72
2023/05/09 03:57:48;;;;;;;1.00;0.10;;;;;;;;;;4956466;28;20034;-72
2023/05/09 04:00:14;;;;;;;0.22;0.20;;;;;;;;;;4956045;28;20533;-72
2023/05/09 04:02:40;;;;;;;0.10;0.10;;;;;;;;;;4949398;28;20448;-74
2023/05/09 04:05:05;;;;;;;0.57;0.20;;;;;;;;;;4946551;28;20143;-72
2023/05/09 04:07:31;;;;;;;0.10;0.10;;;;;;;;;;4959844;28;20439;-73
2023/05/09 04:09:56;;;;;;;1.15;0.25;;;;;;;;;;4957862;28;20045;-72
2023/05/09 04:12:21;;;;;;;0.60;0.13;;;;;;;;;;4960048;28;20359;-74
2023/05/09 04:14:47;;;;;;;0.10;0.10;;;;;;;;;;4958327;28;20155;-73
2023/05/09 04:17:12;;;;;;;0.25;0.20;;;;;;;;;;4955607;28;20033;-72
2023/05/09 04:19:37;;;;;;;10.45;7.07;;;;;;;;;;4959867;28;20019;-72
2023/05/09 04:22:03;;;;;;;72.32;48.72;;;;;;;;;;4973161;28;20054;-71
2023/05/09 04:24:28;;;;;;;70.18;42.42;;;;;;;;;;4957429;28;20469;-71
2023/05/09 04:26:53;;;;;;;21.35;13.73;;;;;;;;;;4956771;28;20035;-73
2023/05/09 04:29:19;;;;;;;41.33;33.20;;;;;;;;;;4959571;28;20027;-74
2023/05/09 04:31:44;;;;;;;6.32;5.53;;;;;;;;;;4948185;28;20457;-76
2023/05/09 04:34:10;;;;;;;9.70;8.75;;;;;;;;;;4952750;28;20041;-72
2023/05/09 04:36:35;;;;;;;14.75;13.40;;;;;;;;;;4964028;28;20041;-73
2023/05/09 04:39:01;;;;;;;3.20;3.00;;;;;;;;;;4958762;28;20035;-71
2023/05/09 04:41:26;;;;;;;1.30;1.20;;;;;;;;;;4954842;28;20234;-72
2023/05/09 04:43:52;;;;;;;3.47;1.90;;;;;;;;;;4957038;28;20061;-71
2023/05/09 04:46:17;;;;;;;2.83;2.63;;;;;;;;;;4955225;28;20039;-72
2023/05/09 04:48:42;;;;;;;3.95;3.55;;;;;;;;;;4956976;28;20122;-72
2023/05/09 04:51:08;;;;;;;1.77;1.67;;;;;;;;;;4955514;28;20019;-71
2023/05/09 04:53:33;;;;;;;6.25;5.75;;;;;;;;;;4954910;28;20034;-71
2023/05/09 04:55:59;;;;;;;2.63;2.42;;;;;;;;;;4955626;28;20449;-71
2023/05/09 04:58:25;;;;;;;7.50;6.65;;;;;;;;;;4956260;28;20064;-71
2023/05/09 05:00:51;;;;;;;4.25;3.90;;;;;;;;;;4954873;28;20386;-71
2023/05/09 05:03:17;;;;;;;3.15;2.90;;;;;;;;;;4958479;28;20073;-71
2023/05/09 05:05:42;;;;;;;0.90;0.90;;;;;;;;;;4958976;28;20058;-72
2023/05/09 05:08:07;;;;;;;0.60;0.60;;;;;;;;;;4955997;28;20034;-71
2023/05/09 05:10:33;;;;;;;1.10;1.10;;;;;;;;;;4957613;28;20062;-73
2023/05/09 05:12:58;;;;;;;1.70;0.47;;;;;;;;;;4957429;28;20042;-71
2023/05/09 05:15:23;;;;;;;1.13;1.02;;;;;;;;;;4956034;28;20031;-72
2023/05/09 05:17:49;;;;;;;4.15;2.58;;;;;;;;;;4955555;28;20026;-73
2023/05/09 05:20:14;;;;;;;0.70;0.70;;;;;;;;;;4956729;28;20434;-71
2023/05/09 05:22:39;;;;;;;0.40;0.40;;;;;;;;;;4956228;28;20458;-71
2023/05/09 05:25:05;;;;;;;0.40;0.40;;;;;;;;;;4953928;28;20082;-71
2023/05/09 05:27:30;;;;;;;1.33;1.23;;;;;;;;;;4957409;28;20042;-70
2023/05/09 05:29:56;;;;;;;0.50;0.45;;;;;;;;;;4958918;28;20110;-70
2023/05/09 05:32:21;;;;;;;1.33;1.23;;;;;;;;;;4959077;28;20296;-71
2023/05/09 05:34:47;;;;;;;1.38;0.50;;;;;;;;;;4955831;28;20121;-73
2023/05/09 05:37:12;;;;;;;0.85;0.28;;;;;;;;;;4955914;28;20130;-70
2023/05/09 05:39:37;;;;;;;0.82;0.20;;;;;;;;;;4955598;28;20343;-70
2023/05/09 05:42:03;;;;;;;0.20;0.20;;;;;;;;;;4956834;28;20064;-71
2023/05/09 05:44:28;;;;;;;0.40;0.30;;;;;;;;;;4970786;28;20042;-71
2023/05/09 05:46:53;;;;;;;0.32;0.28;;;;;;;;;;4948445;28;20038;-70
2023/05/09 05:49:19;;;;;;;2.58;1.67;;;;;;;;;;4947195;28;20155;-71
2023/05/09 05:51:44;;;;;;;2.28;1.50;;;;;;;;;;4945192;28;20031;-70
2023/05/09 05:54:09;;;;;;;3.33;1.98;;;;;;;;;;4947251;28;20022;-71
2023/05/09 05:56:35;;;;;;;2.90;1.80;;;;;;;;;;4940806;28;20067;-72
2023/05/09 05:59:01;;;;;;;2.15;1.20;;;;;;;;;;4944388;28;20022;-74
2023/05/09 06:01:26;;;;;;;1.48;0.95;;;;;;;;;;4945246;28;20031;-72
2023/05/09 06:03:53;;;;;;;2.38;1.05;;;;;;;;;;4945206;28;20081;-71
2023/05/09 06:06:20;;;;;;;1.88;0.75;;;;;;;;;;4948887;28;20039;-71
2023/05/09 06:08:46;;;;;;;0.88;0.70;;;;;;;;;;4944256;28;20141;-71
2023/05/09 06:11:11;;;;;;;1.02;0.90;;;;;;;;;;4954645;28;20457;-71
2023/05/09 06:13:36;;;;;;;3.03;0.65;;;;;;;;;;4954119;28;20023;-72
2023/05/09 06:16:02;;;;;;;1.45;1.35;;;;;;;;;;4956586;28;20403;-73
2023/05/09 06:18:27;;;;;;;0.75;0.65;;;;;;;;;;4955592;28;20098;-72
2023/05/09 06:20:53;;;;;;;0.60;0.20;;;;;;;;;;4942658;28;20505;-71
2023/05/09 06:23:21;;;;;;;0.50;0.50;;;;;;;;;;4942382;28;20045;-71
2023/05/09 06:25:46;;;;;;;0.60;0.60;;;;;;;;;;4941599;28;20037;-73
2023/05/09 06:28:11;;;;;;;1.52;0.98;;;;;;;;;;4947965;28;20031;-73
2023/05/09 06:30:37;;;;;;;1.38;0.82;;;;;;;;;;4955868;28;20038;-72
2023/05/09 06:33:02;;;;;;;0.80;0.63;;;;;;;;;;4956524;28;20414;-72
2023/05/09 06:35:27;;;;;;;0.50;0.50;;;;;;;;;;4953249;28;20039;-71
2023/05/09 06:37:53;;;;;;;0.52;0.52;;;;;;;;;;4944643;28;20031;-71
2023/05/09 06:40:18;;;;;;;2.33;1.10;;;;;;;;;;4955178;28;20030;-72
2023/05/09 06:42:44;;;;;;;1.67;1.05;;;;;;;;;;4956274;28;20047;-71
2023/05/09 06:45:09;;;;;;;1.10;1.00;;;;;;;;;;4953598;28;20027;-71
2023/05/09 06:47:35;;;;;;;0.70;0.60;;;;;;;;;;4956456;28;20031;-71
2023/05/09 06:50:00;;;;;;;0.40;0.40;;;;;;;;;;4953978;28;20439;-72
2023/05/09 06:52:25;;;;;;;3.70;0.40;;;;;;;;;;4944583;28;20365;-73
2023/05/09 06:54:52;;;;;;;0.80;0.70;;;;;;;;;;4948168;28;20034;-71
2023/05/09 06:57:17;;;;;;;0.60;0.60;;;;;;;;;;4954320;28;20034;-72
2023/05/09 06:59:43;;;;;;;1.27;0.90;;;;;;;;;;4956909;28;20505;-72
2023/05/09 07:02:09;;;;;;;0.70;0.70;;;;;;;;;;4955357;28;20031;-75
2023/05/09 07:04:34;;;;;;;0.68;0.60;;;;;;;;;;4957352;28;20192;-72
2023/05/09 07:06:59;;;;;;;1.55;1.17;;;;;;;;;;4953816;28;20427;-76
2023/05/09 07:09:27;;;;;;;1.02;1.00;;;;;;;;;;4953933;28;20078;-73
2023/05/09 07:11:53;;;;;;;1.20;1.10;;;;;;;;;;4967928;28;20480;-73
2023/05/09 07:14:19;;;;;;;0.55;0.55;;;;;;;;;;4950219;28;20036;-73
2023/05/09 07:16:45;;;;;;;2.45;1.58;;;;;;;;;;4944837;28;20085;-75
2023/05/09 07:19:10;;;;;;;7.38;5.10;;;;;;;;;;4944246;28;20471;-75
2023/05/09 07:21:36;;;;;;;5.32;4.43;;;;;;;;;;4943313;28;20053;-73
2023/05/09 07:24:01;;;;;;;3.92;2.25;;;;;;;;;;4940847;28;20041;-71
2023/05/09 07:26:27;;;;;;;5.18;3.85;;;;;;;;;;4947015;28;20928;-72
2023/05/09 07:28:52;;;;;;;2.63;2.28;;;;;;;;;;4948180;28;20035;-73
2023/05/09 07:31:18;;;;;;;1.92;1.77;;;;;;;;;;4948384;28;20031;-72
2023/05/09 07:33:43;;;;;;;2.47;2.22;;;;;;;;;;4947979;28;20109;-70
2023/05/09 07:36:11;;;;;;;2.38;2.05;;;;;;;;;;4949400;28;20461;-70
2023/05/09 07:38:38;;;;;;;2.78;1.40;;;;;;;;;;4951303;28;20027;-72
2023/05/09 07:41:03;;;;;;;1.20;1.10;;;;;;;;;;4956400;28;20406;-71
2023/05/09 07:43:28;;;;;;;0.65;0.65;;;;;;;;;;4958535;28;20039;-71
2023/05/09 07:45:54;;;;;;;1.17;0.95;;;;;;;;;;4958085;28;20033;-72
2023/05/09 07:48:19;;;;;;;2.08;1.00;;;;;;;;;;4951244;28;20447;-73
2023/05/09 07:50:45;;;;;;;0.98;0.85;;;;;;;;;;4945499;28;20125;-74
2023/05/09 07:53:10;;;;;;;1.00;0.88;;;;;;;;;;4945550;28;20368;-73
2023/05/09 07:55:35;;;;;;;0.88;0.77;;;;;;;;;;4947087;28;20042;-75
2023/05/09 07:58:01;;;;;;;0.63;0.57;;;;;;;;;;4948741;28;20034;-73
2023/05/09 08:00:26;;;;;;;0.50;0.50;;;;;;;;;;4944331;28;20551;-73
2023/05/09 08:02:52;;;;;;;1.40;0.93;;;;;;;;;;4950010;28;20488;-72
2023/05/09 08:05:18;;;;;;;2.67;0.80;;;;;;;;;;4944099;28;20442;-72
2023/05/09 08:07:43;;;;;;;2.33;1.40;;;;;;;;;;4949058;28;20049;-71
2023/05/09 08:10:09;;;;;;;7.80;6.43;;;;;;;;;;4948134;28;20439;-73
2023/05/09 08:12:34;;;;;;;4.75;3.97;;;;;;;;;;4944323;28;20026;-72
2023/05/09 08:15:00;;;;;;;6.63;4.57;;;;;;;;;;4946016;28;20130;-74
2023/05/09 08:17:25;;;;;;;3.45;2.88;;;;;;;;;;4952979;28;20031;-73
2023/05/09 08:19:50;;;;;;;3.08;1.98;;;;;;;;;;4946342;28;20031;-74
2023/05/09 08:22:17;;;;;;;3.60;3.15;;;;;;;;;;4951152;28;20031;-73
2023/05/09 08:24:43;;;;;;;1.95;1.85;;;;;;;;;;4959224;28;20514;-74
2023/05/09 08:27:08;;;;;;;1.17;0.90;;;;;;;;;;4944521;28;20084;-73
2023/05/09 08:29:33;;;;;;;1.10;1.10;;;;;;;;;;4948464;28;20029;-75
2023/05/09 08:32:01;;;;;;;1.13;1.02;;;;;;;;;;4945253;28;20019;-73
2023/05/09 08:34:26;;;;;;;1.30;0.90;;;;;;;;;;4948299;28;20030;-72
2023/05/09 08:36:52;;;;;;;1.27;1.15;;;;;;;;;;4946969;28;20031;-73
2023/05/09 08:39:18;;;;;;;1.77;1.00;;;;;;;;;;4942222;28;20035;-73
2023/05/09 08:41:43;;;;;;;0.60;0.60;;;;;;;;;;4948765;28;20498;-73
2023/05/09 08:44:09;;;;;;;2.28;1.27;;;;;;;;;;4945798;28;20358;-73
2023/05/09 08:46:37;;;;;;;0.82;0.60;;;;;;;;;;4947074;28;20347;-72
2023/05/09 08:49:06;;;;;;;0.85;0.60;;;;;;;;;;4943299;28;20031;-73
2023/05/09 08:51:31;;;;;;;2.05;0.80;;;;;;;;;;4943468;28;20337;-71
2023/05/09 08:53:57;;;;;;;1.98;0.80;;;;;;;;;;4943165;28;20453;-72
2023/05/09 08:56:23;;;;;;;1.10;1.00;;;;;;;;;;4945891;28;20083;-72
2023/05/09 08:58:48;;;;;;;1.63;0.63;;;;;;;;;;4945332;28;20098;-74
2023/05/09 09:01:15;;;;;;;1.58;0.65;;;;;;;;;;4947509;28;20098;-73
2023/05/09 09:03:46;;;;;;;0.50;0.47;;;;;;;;;;4944195;28;20133;-72
2023/05/09 09:06:12;;;;;;;0.82;0.82;;;;;;;;;;4947148;28;20173;-73
2023/05/09 09:08:37;;;;;;;1.08;0.90;;;;;;;;;;4945469;28;20620;-73
2023/05/09 09:11:03;;;;;;;1.08;1.08;;;;;;;;;;4947221;28;20027;-72
2023/05/09 09:13:29;;;;;;;1.60;1.00;;;;;;;;;;4943228;28;20031;-73
2023/05/09 09:15:56;;;;;;;1.42;0.73;;;;;;;;;;4944108;28;20113;-71
2023/05/09 09:18:22;;;;;;;1.00;0.88;;;;;;;;;;4943624;28;20451;-71
2023/05/09 09:20:55;;;;;;;1.48;1.35;;;;;;;;;;4945314;28;20041;-75
2023/05/09 09:23:22;;;;;;;1.10;0.63;;;;;;;;;;4946575;28;20085;-75
2023/05/09 09:25:56;;;;;;;0.60;0.50;;;;;;;;;;4942505;28;20112;-73
2023/05/09 09:28:22;;;;;;;1.20;0.50;;;;;;;;;;4942030;28;20443;-71
2023/05/09 09:30:47;;;;;;;1.10;1.00;;;;;;;;;;4942743;28;20045;-73
2023/05/09 09:33:22;;;;;;;0.77;0.60;;;;;;;;;;4945460;28;20030;-73
2023/05/09 09:35:51;;;;;;;1.00;0.90;;;;;;;;;;4943917;28;20101;-72
2023/05/09 09:38:18;;;;;;;1.10;0.93;;;;;;;;;;4947775;28;20038;-74
2023/05/09 09:41:03;;;;;;;0.60;0.60;;;;;;;;;;4944295;28;20054;-73
2023/05/09 09:43:29;;;;;;;0.77;0.77;;;;;;;;;;4943008;28;20039;-73
2023/05/09 09:45:56;;;;;;;0.80;0.77;;;;;;;;;;4945012;28;20069;-73
2023/05/09 09:48:25;;;;;;;0.70;0.70;;;;;;;;;;4944969;28;20052;-73
2023/05/09 09:50:52;;;;;;;0.52;0.52;;;;;;;;;;4943531;28;20023;-73
2023/05/09 09:53:19;;;;;;;4.15;1.05;;;;;;;;;;4944579;28;20031;-73
2023/05/09 09:55:51;;;;;;;2.38;1.52;;;;;;;;;;4947191;28;20031;-73
2023/05/09 09:58:17;;;;;;;0.88;0.85;;;;;;;;;;4946283;28;20033;-73
2023/05/09 10:00:43;;;;;;;0.88;0.82;;;;;;;;;;4943483;28;20030;-74
2023/05/09 10:03:12;;;;;;;1.00;0.80;;;;;;;;;;4945322;28;20050;-72
2023/05/09 10:05:39;;;;;;;3.10;0.80;;;;;;;;;;4947063;28;20050;-72
2023/05/09 10:08:06;;;;;;;0.90;0.90;;;;;;;;;;4947038;28;20033;-73
2023/05/09 10:10:33;;;;;;;0.70;0.70;;;;;;;;;;4942222;28;20098;-74
2023/05/09 10:12:59;;;;;;;0.70;0.70;;;;;;;;;;4941133;28;20474;-73
2023/05/09 10:15:25;;;;;;;4.63;1.00;;;;;;;;;;4943151;28;21789;-72
2023/05/09 10:17:53;;;;;;;1.73;1.10;;;;;;;;;;4956105;28;20423;-72
2023/05/09 10:20:18;;;;;;;1.05;0.98;;;;;;;;;;4946998;28;20031;-72
2023/05/09 10:22:44;;;;;;;1.38;1.13;;;;;;;;;;4938250;28;21052;-72
2023/05/09 10:25:19;;;;;;;4.22;0.75;;;;;;;;;;4941483;28;20125;-72
2023/05/09 10:27:45;;;;;;;1.40;1.30;;;;;;;;;;4959657;28;20034;-72
2023/05/09 10:30:18;;;;;;;2.85;1.50;;;;;;;;;;4941356;28;20063;-72
2023/05/09 10:32:55;;;;;;;1.10;1.08;;;;;;;;;;4942714;28;20048;-73
2023/05/09 10:35:27;;;;;;;2.78;1.70;;;;;;;;;;4943144;28;20466;-74
2023/05/09 10:37:55;;;;;;;2.40;1.40;;;;;;;;;;4937505;28;20113;-71
2023/05/09 10:40:20;;;;;;;1.67;1.58;;;;;;;;;;4941168;28;20030;-71
2023/05/09 10:42:45;;;;;;;1.73;1.60;;;;;;;;;;4941221;28;20031;-72
2023/05/09 10:45:11;;;;;;;1.70;1.58;;;;;;;;;;4938593;28;20046;-71
2023/05/09 10:47:40;;;;;;;0.98;0.98;;;;;;;;;;4942496;28;20426;-74
2023/05/09 10:50:09;;;;;;;1.20;1.10;;;;;;;;;;4944806;28;20117;-72
2023/05/09 10:52:45;;;;;;;1.10;1.00;;;;;;;;;;4942841;28;20029;-72
2023/05/09 10:55:11;;;;;;;1.13;1.02;;;;;;;;;;4944832;28;20107;-72
2023/05/09 10:57:37;;;;;;;3.60;2.88;;;;;;;;;;4939951;28;20027;-72
2023/05/09 11:00:04;;;;;;;3.10;1.40;;;;;;;;;;4945880;28;20055;-72
2023/05/09 11:02:31;;;;;;;0.80;0.80;;;;;;;;;;4956897;28;20399;-72
2023/05/09 11:05:15;;;;;;;1.20;1.10;;;;;;;;;;4950658;28;20118;-73
2023/05/09 11:07:42;;;;;;;1.48;1.38;;;;;;;;;;4954548;28;20117;-71
2023/05/09 11:10:08;;;;;;;4.47;1.63;;;;;;;;;;4951409;28;20054;-71
2023/05/09 11:12:34;;;;;;;1.35;1.25;;;;;;;;;;4954730;28;20030;-72
2023/05/09 11:15:06;;;;;;;1.17;1.10;;;;;;;;;;4953731;28;20061;-72
2023/05/09 11:17:36;;;;;;;1.25;1.15;;;;;;;;;;4954322;28;20151;-72
2023/05/09 11:20:04;;;;;;;1.10;1.10;;;;;;;;;;4948526;28;20038;-75
2023/05/09 11:22:36;;;;;;;1.95;1.75;;;;;;;;;;4951751;28;20023;-72
2023/05/09 11:25:06;;;;;;;1.30;1.20;;;;;;;;;;4952501;28;20516;-73
2023/05/09 11:27:50;;;;;;;1.88;1.70;;;;;;;;;;4956236;28;20062;-74
2023/05/09 11:30:17;;;;;;;2.47;2.10;;;;;;;;;;4953239;28;20031;-72
2023/05/09 11:32:46;;;;;;;2.85;1.90;;;;;;;;;;4955030;28;20864;-72
2023/05/09 11:35:15;;;;;;;2.95;2.10;;;;;;;;;;4952053;28;20045;-73
2023/05/09 11:37:54;;;;;;;2.10;1.90;;;;;;;;;;4946456;28;20050;-71
2023/05/09 11:40:20;;;;;;;2.05;1.50;;;;;;;;;;4952592;28;20340;-72
2023/05/09 11:42:47;;;;;;;1.50;1.40;;;;;;;;;;4956471;28;20508;-74
2023/05/09 11:45:13;;;;;;;6.57;2.60;;;;;;;;;;4952658;28;20058;-71
2023/05/09 11:47:39;;;;;;;1.80;1.70;;;;;;;;;;4954792;28;20118;-73
2023/05/09 11:50:14;;;;;;;1.48;1.38;;;;;;;;;;4964132;28;20035;-73
2023/05/09 11:52:43;;;;;;;2.05;1.48;;;;;;;;;;4942197;28;20032;-72
2023/05/09 11:55:09;;;;;;;2.33;1.40;;;;;;;;;;4956571;28;20140;-72
2023/05/09 11:57:38;;;;;;;1.65;1.55;;;;;;;;;;4954126;28;20030;-72
2023/05/09 12:00:05;;;;;;;1.83;1.73;;;;;;;;;;4957067;28;20344;-72
2023/05/09 12:02:30;;;;;;;2.17;1.90;;;;;;;;;;4947619;28;20023;-71
2023/05/09 12:04:56;;;;;;;1.83;1.52;;;;;;;;;;4949577;28;20038;-73
2023/05/09 12:07:21;;;;;;;2.50;1.92;;;;;;;;;;4941312;28;20031;-74
2023/05/09 12:09:48;;;;;;;5.95;3.42;;;;;;;;;;4945650;28;20129;-73
2023/05/09 12:12:14;;;;;;;6.35;1.80;;;;;;;;;;4944654;28;20031;-72
2023/05/09 12:14:40;;;;;;;1.98;1.77;;;;;;;;;;4963369;28;20468;-71
2023/05/09 12:17:06;;;;;;;2.15;1.70;;;;;;;;;;4945262;28;20024;-72
2023/05/09 12:19:31;;;;;;;2.28;1.92;;;;;;;;;;4946496;28;20073;-74
2023/05/09 12:21:58;;;;;;;1.92;1.83;;;;;;;;;;4946563;28;20513;-76
2023/05/09 12:24:27;;;;;;;2.47;2.00;;;;;;;;;;4951796;28;20026;-75
2023/05/09 12:26:53;;;;;;;2.13;1.55;;;;;;;;;;4965238;28;20502;-75
2023/05/09 12:29:19;;;;;;;3.85;1.63;;;;;;;;;;4951694;28;20031;-74
2023/05/09 12:31:45;;;;;;;2.97;1.80;;;;;;;;;;4956973;28;20362;-74
2023/05/09 12:34:11;;;;;;;3.15;1.70;;;;;;;;;;4947045;28;20018;-76
2023/05/09 12:36:36;;;;;;;3.17;2.83;;;;;;;;;;4956396;28;20473;-72
2023/05/09 12:39:02;;;;;;;1.83;1.73;;;;;;;;;;4949577;28;20084;-75
2023/05/09 12:41:28;;;;;;;2.05;1.85;;;;;;;;;;4947739;28;20051;-73
2023/05/09 12:43:54;;;;;;;3.20;1.75;;;;;;;;;;4947445;28;20458;-73
2023/05/09 12:46:20;;;;;;;3.10;2.65;;;;;;;;;;4949653;28;20034;-73
2023/05/09 12:48:47;;;;;;;2.28;2.08;;;;;;;;;;4947453;28;20526;-71
2023/05/09 12:51:16;;;;;;;3.00;2.10;;;;;;;;;;4957678;28;20027;-73
2023/05/09 12:53:42;;;;;;;2.28;1.70;;;;;;;;;;4950578;28;20035;-73
2023/05/09 12:56:11;;;;;;;1.85;1.75;;;;;;;;;;4951500;28;20097;-74
2023/05/09 12:58:37;;;;;;;2.20;2.00;;;;;;;;;;4948765;28;20474;-72
2023/05/09 13:01:03;;;;;;;3.00;2.00;;;;;;;;;;4956682;28;20037;-72
2023/05/09 13:03:36;;;;;;;8.38;2.78;;;;;;;;;;4957397;28;20027;-73
2023/05/09 13:06:03;;;;;;;2.50;2.30;;;;;;;;;;4956100;28;20126;-72
2023/05/09 13:08:29;;;;;;;1.75;1.65;;;;;;;;;;4954785;28;20031;-73
2023/05/09 13:10:56;;;;;;;2.70;2.00;;;;;;;;;;4957230;28;20037;-73
2023/05/09 13:13:25;;;;;;;2.88;2.25;;;;;;;;;;4954776;28;20419;-73
2023/05/09 13:15:50;;;;;;;4.87;2.47;;;;;;;;;;4957819;28;20034;-75
2023/05/09 13:18:16;;;;;;;2.10;1.90;;;;;;;;;;4957241;28;20019;-73
2023/05/09 13:20:41;;;;;;;2.60;1.80;;;;;;;;;;4957531;28;20429;-75
2023/05/09 13:23:07;;;;;;;2.90;2.05;;;;;;;;;;4944576;28;20450;-74
2023/05/09 13:25:32;;;;;;;3.50;2.40;;;;;;;;;;4950349;28;20039;-71
2023/05/09 13:27:57;;;;;;;4.60;4.20;;;;;;;;;;4957114;28;20034;-71
2023/05/09 13:30:23;;;;;;;4.05;2.20;;;;;;;;;;4948670;28;20018;-74
2023/05/09 13:32:48;;;;;;;2.60;2.40;;;;;;;;;;4954241;28;20469;-72
2023/05/09 13:35:14;;;;;;;2.22;2.03;;;;;;;;;;4946908;28;20031;-72
2023/05/09 13:37:39;;;;;;;3.67;2.60;;;;;;;;;;4944177;28;20118;-75
2023/05/09 13:40:05;;;;;;;2.25;2.03;;;;;;;;;;4942019;28;20030;-73
2023/05/09 13:42:33;;;;;;;4.28;2.78;;;;;;;;;;4946347;28;20402;-74
2023/05/09 13:44:58;;;;;;;2.95;2.08;;;;;;;;;;4953829;28;20023;-72
2023/05/09 13:47:23;;;;;;;3.42;2.10;;;;;;;;;;4956191;28;20046;-72
2023/05/09 13:49:49;;;;;;;3.53;3.22;;;;;;;;;;4951482;28;20019;-72
2023/05/09 13:52:15;;;;;;;2.78;2.58;;;;;;;;;;4953052;28;20107;-72
2023/05/09 13:54:40;;;;;;;5.03;2.80;;;;;;;;;;4948625;28;20061;-72
2023/05/09 13:57:06;;;;;;;2.47;2.20;;;;;;;;;;4941715;28;20031;-74
2023/05/09 13:59:32;;;;;;;3.30;2.70;;;;;;;;;;4941015;28;20470;-75
2023/05/09 14:01:58;;;;;;;2.90;2.58;;;;;;;;;;4954074;28;20034;-71
2023/05/09 14:04:27;;;;;;;3.15;2.55;;;;;;;;;;4955432;28;20089;-72
2023/05/09 14:06:53;;;;;;;4.18;2.50;;;;;;;;;;4952660;28;20039;-71
2023/05/09 14:09:20;;;;;;;2.53;2.30;;;;;;;;;;4950575;28;20114;-71
2023/05/09 14:11:46;;;;;;;3.33;2.30;;;;;;;;;;4955349;28;20027;-72
2023/05/09 14:14:11;;;;;;;2.85;2.33;;;;;;;;;;4956133;28;20031;-71
2023/05/09 14:16:36;;;;;;;2.42;2.22;;;;;;;;;;4954371;28;20390;-70
2023/05/09 14:19:02;;;;;;;5.30;2.42;;;;;;;;;;4956267;28;20059;-72
2023/05/09 14:21:27;;;;;;;4.03;3.40;;;;;;;;;;4952877;28;20057;-72
2023/05/09 14:23:53;;;;;;;2.88;2.67;;;;;;;;;;4953870;28;20842;-71
2023/05/09 14:26:18;;;;;;;3.28;2.40;;;;;;;;;;4956346;28;20494;-72
2023/05/09 14:28:43;;;;;;;3.10;2.47;;;;;;;;;;4955123;28;20446;-72
2023/05/09 14:31:09;;;;;;;2.45;2.25;;;;;;;;;;4953776;28;20034;-73
2023/05/09 14:33:35;;;;;;;2.35;2.15;;;;;;;;;;4952567;28;20409;-73
2023/05/09 14:36:01;;;;;;;3.08;2.80;;;;;;;;;;4956200;28;20038;-73
2023/05/09 14:38:28;;;;;;;3.95;2.47;;;;;;;;;;4948866;28;20027;-72